createdAt,value
2018-05-18T00:01:43.916Z,12.60
2018-05-18T00:04:10.169Z,12.60
2018-05-18T00:06:36.404Z,12.60
2018-05-18T00:09:02.691Z,12.50
2018-05-18T00:11:28.914Z,12.50
2018-05-18T00:13:55.144Z,12.50
2018-05-18T00:16:21.386Z,12.50
2018-05-18T00:18:47.646Z,12.50
2018-05-18T00:21:13.885Z,12.50
2018-05-18T00:23:40.126Z,12.50
2018-05-18T00:26:06.370Z,12.50
2018-05-18T00:28:32.824Z,12.60
2018-05-18T00:30:59.779Z,12.50
2018-05-18T00:33:26.016Z,12.50
2018-05-18T00:35:53.006Z,12.50
2018-05-18T00:38:19.226Z,12.50
2018-05-18T00:40:46.239Z,12.50
2018-05-18T00:43:12.457Z,12.50
2018-05-18T00:45:38.679Z,12.50
2018-05-18T00:48:04.937Z,12.50
2018-05-18T00:50:31.149Z,12.50
2018-05-18T00:53:05.043Z,12.60
2018-05-18T00:55:39.253Z,12.60
2018-05-18T00:58:05.492Z,12.60
2018-05-18T01:00:31.723Z,12.50
2018-05-18T01:02:57.957Z,12.60
2018-05-18T01:05:24.161Z,12.50
2018-05-18T01:07:51.114Z,12.50
2018-05-18T01:10:18.101Z,12.60
2018-05-18T01:12:44.322Z,12.50
2018-05-18T01:15:11.305Z,12.60
2018-05-18T01:17:37.528Z,12.50
2018-05-18T01:20:03.797Z,12.60
2018-05-18T01:22:30.060Z,12.60
2018-05-18T01:24:56.304Z,12.60
2018-05-18T01:27:22.545Z,12.50
2018-05-18T01:29:49.101Z,12.50
2018-05-18T01:32:15.348Z,12.50
2018-05-18T01:34:41.575Z,12.50
2018-05-18T01:37:07.792Z,12.50
2018-05-18T01:39:34.039Z,12.50
2018-05-18T01:42:00.273Z,12.50
2018-05-18T01:44:26.488Z,12.50
2018-05-18T01:46:52.730Z,12.50
2018-05-18T01:49:18.939Z,12.50
2018-05-18T01:51:45.928Z,12.50
2018-05-18T01:54:12.160Z,12.50
2018-05-18T01:56:38.376Z,12.50
2018-05-18T01:59:05.350Z,12.50
2018-05-18T02:01:32.342Z,12.40
2018-05-18T02:03:58.583Z,12.40
2018-05-18T02:06:24.795Z,12.40
2018-05-18T02:08:51.016Z,12.40
2018-05-18T02:11:17.976Z,12.30
2018-05-18T02:13:44.936Z,12.30
2018-05-18T02:16:11.912Z,12.30
2018-05-18T02:18:38.141Z,12.30
2018-05-18T02:21:05.117Z,12.30
2018-05-18T02:23:31.387Z,12.30
2018-05-18T02:25:57.606Z,12.30
2018-05-18T02:28:23.826Z,12.30
2018-05-18T02:30:50.922Z,12.30
2018-05-18T02:33:17.888Z,12.30
2018-05-18T02:35:44.114Z,12.30
2018-05-18T02:38:10.338Z,12.30
2018-05-18T02:40:36.556Z,12.30
2018-05-18T02:43:03.525Z,12.30
2018-05-18T02:45:29.786Z,12.30
2018-05-18T02:47:56.006Z,12.30
2018-05-18T02:50:22.254Z,12.30
2018-05-18T02:52:48.504Z,12.40
2018-05-18T02:55:14.736Z,12.60
2018-05-18T02:57:40.955Z,12.80
2018-05-18T03:00:07.934Z,13.30
2018-05-18T03:02:34.149Z,13.30
2018-05-18T03:05:01.109Z,13.60
2018-05-18T03:07:28.110Z,13.60
2018-05-18T03:09:54.339Z,13.60
2018-05-18T03:12:20.588Z,13.60
2018-05-18T03:14:46.835Z,13.60
2018-05-18T03:17:13.047Z,13.60
2018-05-18T03:19:39.273Z,13.70
2018-05-18T03:22:06.305Z,13.80
2018-05-18T03:24:32.531Z,13.80
2018-05-18T03:27:01.665Z,13.90
2018-05-18T03:29:28.645Z,14.00
2018-05-18T03:31:55.715Z,14.00
2018-05-18T03:34:21.975Z,14.00
2018-05-18T03:36:48.216Z,14.00
2018-05-18T03:39:14.448Z,14.10
2018-05-18T03:41:40.675Z,14.20
2018-05-18T03:44:06.918Z,14.20
2018-05-18T03:46:33.160Z,14.10
2018-05-18T03:48:59.373Z,14.00
2018-05-18T03:51:26.361Z,14.00
2018-05-18T03:53:52.587Z,14.00
2018-05-18T03:56:19.552Z,14.00
2018-05-18T03:58:45.780Z,14.00
2018-05-18T04:01:18.666Z,14.00
2018-05-18T04:03:57.103Z,13.90
2018-05-18T04:06:36.120Z,13.90
2018-05-18T04:09:02.420Z,13.90
2018-05-18T04:11:28.630Z,13.90
2018-05-18T04:13:55.720Z,14.00
2018-05-18T04:16:21.960Z,14.10
2018-05-18T04:18:48.194Z,14.10
2018-05-18T04:21:14.460Z,14.20
2018-05-18T04:23:40.710Z,14.10
2018-05-18T04:26:07.682Z,13.70
2018-05-18T04:28:33.921Z,13.70
2018-05-18T04:31:00.198Z,13.60
2018-05-18T04:33:27.173Z,13.70
2018-05-18T04:35:53.518Z,13.70
2018-05-18T04:38:19.746Z,13.80
2018-05-18T04:40:45.974Z,14.00
2018-05-18T04:43:12.976Z,14.10
2018-05-18T04:45:39.214Z,14.00
2018-05-18T04:48:05.430Z,14.10
2018-05-18T04:50:31.679Z,14.00
2018-05-18T04:52:57.911Z,14.10
2018-05-18T04:55:24.140Z,14.00
2018-05-18T04:57:51.091Z,14.00
2018-05-18T05:00:18.100Z,14.10
2018-05-18T05:02:44.331Z,14.10
2018-05-18T05:05:10.579Z,14.00
2018-05-18T05:07:37.004Z,13.90
2018-05-18T05:10:03.252Z,13.80
2018-05-18T05:12:29.551Z,13.70
2018-05-18T05:14:55.787Z,13.70
2018-05-18T05:17:22.761Z,13.50
2018-05-18T05:19:49.711Z,13.50
2018-05-18T05:22:16.024Z,13.50
2018-05-18T05:24:42.248Z,13.50
2018-05-18T05:27:08.485Z,13.50
2018-05-18T05:29:34.733Z,13.50
2018-05-18T05:32:01.415Z,13.50
2018-05-18T05:34:27.655Z,13.40
2018-05-18T05:36:54.653Z,13.30
2018-05-18T05:39:20.989Z,13.30
2018-05-18T05:41:47.249Z,13.30
2018-05-18T05:44:13.508Z,13.20
2018-05-18T05:46:39.747Z,13.20
2018-05-18T05:49:05.970Z,13.20
2018-05-18T05:51:32.213Z,13.20
2018-05-18T05:53:58.441Z,13.10
2018-05-18T05:56:24.665Z,13.20
2018-05-18T05:58:50.922Z,13.20
2018-05-18T06:01:17.153Z,13.20
2018-05-18T06:03:43.386Z,13.20
2018-05-18T06:06:09.649Z,13.20
2018-05-18T06:08:35.861Z,13.20
2018-05-18T06:11:02.089Z,13.30
2018-05-18T06:13:29.104Z,13.40
2018-05-18T06:15:55.343Z,13.40
2018-05-18T06:18:21.558Z,13.60
2018-05-18T06:20:48.055Z,13.70
2018-05-18T06:23:14.410Z,13.80
2018-05-18T06:25:40.626Z,13.90
2018-05-18T06:28:06.891Z,13.90
2018-05-18T06:30:33.867Z,14.10
2018-05-18T06:33:00.996Z,14.10
2018-05-18T06:35:27.455Z,14.00
2018-05-18T06:37:53.703Z,14.10
2018-05-18T06:40:20.662Z,14.00
2018-05-18T06:42:46.902Z,14.00
2018-05-18T06:45:13.872Z,14.10
2018-05-18T06:47:40.101Z,14.10
2018-05-18T06:50:07.115Z,14.20
2018-05-18T06:52:33.365Z,14.20
2018-05-18T06:54:59.559Z,14.20
2018-05-18T06:57:25.798Z,14.40
2018-05-18T06:59:52.016Z,14.40
2018-05-18T07:02:19.008Z,14.60
2018-05-18T07:04:45.244Z,14.60
2018-05-18T07:07:11.448Z,14.70
2018-05-18T07:09:37.675Z,14.70
2018-05-18T07:12:03.929Z,14.70
2018-05-18T07:14:30.164Z,14.70
2018-05-18T07:16:56.374Z,14.70
2018-05-18T07:19:22.625Z,14.80
2018-05-18T07:21:48.864Z,14.80
2018-05-18T07:24:15.081Z,14.90
2018-05-18T07:26:41.314Z,15.00
2018-05-18T07:29:07.542Z,15.00
2018-05-18T07:31:33.780Z,15.10
2018-05-18T07:34:00.164Z,15.10
2018-05-18T07:36:26.390Z,15.10
2018-05-18T07:38:52.606Z,15.00
2018-05-18T07:41:18.838Z,15.00
2018-05-18T07:43:45.143Z,15.00
2018-05-18T07:46:11.282Z,15.10
2018-05-18T07:48:37.540Z,15.20
2018-05-18T07:51:04.518Z,15.40
2018-05-18T07:53:31.573Z,15.30
2018-05-18T07:55:57.697Z,15.30
2018-05-18T07:58:23.933Z,15.30
2018-05-18T08:00:50.163Z,15.30
2018-05-18T08:03:16.387Z,15.30
2018-05-18T08:05:42.637Z,15.40
2018-05-18T08:08:08.839Z,15.50
2018-05-18T08:10:35.073Z,15.60
2018-05-18T08:13:01.291Z,15.60
2018-05-18T08:15:28.876Z,15.90
2018-05-18T08:17:55.865Z,16.00
2018-05-18T08:20:22.081Z,16.00
2018-05-18T08:22:48.315Z,16.20
2018-05-18T08:25:14.604Z,16.20
2018-05-18T08:27:40.926Z,16.20
2018-05-18T08:30:07.106Z,16.20
2018-05-18T08:32:33.378Z,16.30
2018-05-18T08:34:59.628Z,16.50
2018-05-18T08:37:25.836Z,16.60
2018-05-18T08:39:52.088Z,16.60
2018-05-18T08:42:19.054Z,16.50
2018-05-18T08:44:45.292Z,16.50
2018-05-18T08:47:12.254Z,16.40
2018-05-18T08:49:38.469Z,16.40
2018-05-18T08:52:04.689Z,16.50
2018-05-18T08:54:30.922Z,16.60
2018-05-18T08:56:57.142Z,16.70
2018-05-18T08:59:23.357Z,16.80
2018-05-18T09:01:50.411Z,17.20
2018-05-18T09:04:16.622Z,17.20
2018-05-18T09:06:42.852Z,17.40
2018-05-18T09:09:09.081Z,17.40
2018-05-18T09:11:35.309Z,17.40
2018-05-18T09:14:01.585Z,17.40
2018-05-18T09:16:27.947Z,17.50
2018-05-18T09:18:54.234Z,17.60
2018-05-18T09:21:20.528Z,17.90
2018-05-18T09:23:47.612Z,18.40
2018-05-18T09:26:13.906Z,18.30
2018-05-18T09:28:40.184Z,18.30
2018-05-18T09:31:06.494Z,18.30
2018-05-18T09:33:32.744Z,18.20
2018-05-18T09:35:58.992Z,18.20
2018-05-18T09:38:25.270Z,18.30
2018-05-18T09:40:51.494Z,18.30
2018-05-18T09:43:18.458Z,18.50
2018-05-18T09:45:44.706Z,18.50
2018-05-18T09:48:10.913Z,18.70
2018-05-18T09:50:37.114Z,18.80
2018-05-18T09:53:03.348Z,19.00
2018-05-18T09:55:29.866Z,19.20
2018-05-18T09:57:55.842Z,19.50
2018-05-18T10:00:22.074Z,19.80
2018-05-18T10:02:48.304Z,20.10
2018-05-18T10:05:14.513Z,20.30
2018-05-18T10:07:40.778Z,20.40
2018-05-18T10:10:07.010Z,20.50
2018-05-18T10:12:33.209Z,20.50
2018-05-18T10:14:59.437Z,20.70
2018-05-18T10:17:25.654Z,21.00
2018-05-18T10:19:51.866Z,21.00
2018-05-18T10:22:18.120Z,20.80
2018-05-18T10:24:44.354Z,20.50
2018-05-18T10:27:10.590Z,20.50
2018-05-18T10:29:36.847Z,20.60
2018-05-18T10:32:03.093Z,20.80
2018-05-18T10:34:29.322Z,21.00
2018-05-18T10:36:55.573Z,21.10
2018-05-18T10:39:21.794Z,21.00
2018-05-18T10:41:48.031Z,20.70
2018-05-18T10:44:14.310Z,20.60
2018-05-18T10:46:40.571Z,20.50
2018-05-18T10:49:06.819Z,20.50
2018-05-18T10:51:33.050Z,20.60
2018-05-18T10:53:59.279Z,20.80
2018-05-18T10:56:25.494Z,21.30
2018-05-18T10:58:51.721Z,21.70
2018-05-18T11:01:17.969Z,22.10
2018-05-18T11:03:44.222Z,22.20
2018-05-18T11:06:10.476Z,22.00
2018-05-18T11:08:36.701Z,21.80
2018-05-18T11:11:02.914Z,21.60
2018-05-18T11:13:29.158Z,21.60
2018-05-18T11:15:55.354Z,21.70
2018-05-18T11:18:21.565Z,21.60
2018-05-18T11:20:47.810Z,21.70
2018-05-18T11:23:14.064Z,21.70
2018-05-18T11:25:40.282Z,21.90
2018-05-18T11:28:06.494Z,22.10
2018-05-18T11:30:32.704Z,22.10
2018-05-18T11:32:59.047Z,22.00
2018-05-18T11:35:25.305Z,21.90
2018-05-18T11:37:51.558Z,21.70
2018-05-18T11:40:17.793Z,21.60
2018-05-18T11:42:44.117Z,21.60
2018-05-18T11:45:11.105Z,22.00
2018-05-18T11:47:37.366Z,22.00
2018-05-18T11:50:04.394Z,23.20
2018-05-18T11:52:30.628Z,23.10
2018-05-18T11:54:57.598Z,24.50
2018-05-18T11:57:23.847Z,24.50
2018-05-18T11:59:50.066Z,25.20
2018-05-18T12:02:16.264Z,25.60
2018-05-18T12:04:42.515Z,25.10
2018-05-18T12:07:08.733Z,24.40
2018-05-18T12:09:34.973Z,23.60
2018-05-18T12:12:01.211Z,23.30
2018-05-18T12:14:27.450Z,23.70
2018-05-18T12:16:53.678Z,24.30
2018-05-18T12:19:19.956Z,24.90
2018-05-18T12:21:46.196Z,25.40
2018-05-18T12:24:12.432Z,25.80
2018-05-18T12:26:38.670Z,26.20
2018-05-18T12:29:04.929Z,26.70
2018-05-18T12:31:31.176Z,27.10
2018-05-18T12:33:57.512Z,27.20
2018-05-18T12:36:23.754Z,27.40
2018-05-18T12:38:49.987Z,27.60
2018-05-18T12:41:16.214Z,27.80
2018-05-18T12:43:42.443Z,28.00
2018-05-18T12:46:08.662Z,28.10
2018-05-18T12:48:34.934Z,28.20
2018-05-18T12:51:01.340Z,28.60
2018-05-18T12:53:27.573Z,28.70
2018-05-18T12:55:53.847Z,28.30
2018-05-18T12:58:20.091Z,27.50
2018-05-18T13:00:46.293Z,27.00
2018-05-18T13:03:12.564Z,26.90
2018-05-18T13:05:38.798Z,26.40
2018-05-18T13:08:05.030Z,25.70
2018-05-18T13:10:31.637Z,25.00
2018-05-18T13:12:57.859Z,24.60
2018-05-18T13:15:24.085Z,24.90
2018-05-18T13:17:50.347Z,25.60
2018-05-18T13:20:16.608Z,26.50
2018-05-18T13:22:43.582Z,27.80
2018-05-18T13:25:09.892Z,27.80
2018-05-18T13:27:36.124Z,28.40
2018-05-18T13:30:02.360Z,28.70
2018-05-18T13:32:28.637Z,28.80
2018-05-18T13:34:54.871Z,29.00
2018-05-18T13:37:21.854Z,27.60
2018-05-18T13:39:48.141Z,27.50
2018-05-18T13:42:14.369Z,26.70
2018-05-18T13:44:40.609Z,26.10
2018-05-18T13:47:06.869Z,26.00
2018-05-18T13:49:33.095Z,26.50
2018-05-18T13:51:59.330Z,27.00
2018-05-18T13:54:25.575Z,27.50
2018-05-18T13:56:51.792Z,27.90
2018-05-18T13:59:18.014Z,28.20
2018-05-18T14:01:44.270Z,28.60
2018-05-18T14:04:10.500Z,28.60
2018-05-18T14:06:36.742Z,28.10
2018-05-18T14:09:03.064Z,27.20
2018-05-18T14:11:29.277Z,26.70
2018-05-18T14:13:55.540Z,26.80
2018-05-18T14:16:21.776Z,26.70
2018-05-18T14:18:47.983Z,26.40
2018-05-18T14:21:14.199Z,25.80
2018-05-18T14:23:40.456Z,25.20
2018-05-18T14:26:06.705Z,24.80
2018-05-18T14:28:32.945Z,24.40
2018-05-18T14:30:59.949Z,25.20
2018-05-18T14:33:26.982Z,26.00
2018-05-18T14:35:53.205Z,26.00
2018-05-18T14:38:19.480Z,26.80
2018-05-18T14:40:46.446Z,27.30
2018-05-18T14:43:13.425Z,27.50
2018-05-18T14:45:39.670Z,27.50
2018-05-18T14:48:05.888Z,27.80
2018-05-18T14:50:32.885Z,28.20
2018-05-18T14:52:59.175Z,28.20
2018-05-18T14:55:26.157Z,27.80
2018-05-18T14:57:52.397Z,27.80
2018-05-18T15:00:18.663Z,27.60
2018-05-18T15:02:44.904Z,27.70
2018-05-18T15:05:11.175Z,27.70
2018-05-18T15:07:37.522Z,27.40
2018-05-18T15:10:03.775Z,27.00
2018-05-18T15:12:29.993Z,26.80
2018-05-18T15:14:56.251Z,26.90
2018-05-18T15:17:22.463Z,27.20
2018-05-18T15:19:48.683Z,27.60
2018-05-18T15:22:14.931Z,27.90
2018-05-18T15:24:41.886Z,28.00
2018-05-18T15:27:08.155Z,28.00
2018-05-18T15:29:34.412Z,28.00
2018-05-18T15:32:00.666Z,27.90
2018-05-18T15:34:27.645Z,27.80
2018-05-18T15:36:53.920Z,27.80
2018-05-18T15:39:20.159Z,27.90
2018-05-18T15:41:46.428Z,28.00
2018-05-18T15:44:12.677Z,28.10
2018-05-18T15:46:38.939Z,28.10
2018-05-18T15:49:05.234Z,28.00
2018-05-18T15:51:31.479Z,27.90
2018-05-18T15:53:57.713Z,27.80
2018-05-18T15:56:23.943Z,27.60
2018-05-18T15:58:50.193Z,27.50
2018-05-18T16:01:16.404Z,27.20
2018-05-18T16:03:42.659Z,27.10
2018-05-18T16:06:08.896Z,27.00
2018-05-18T16:08:35.140Z,26.90
2018-05-18T16:11:01.362Z,26.90
2018-05-18T16:13:27.707Z,26.90
2018-05-18T16:15:53.938Z,27.10
2018-05-18T16:18:20.173Z,27.20
2018-05-18T16:20:46.407Z,27.20
2018-05-18T16:23:13.404Z,27.00
2018-05-18T16:25:39.656Z,27.00
2018-05-18T16:28:05.934Z,26.90
2018-05-18T16:30:32.201Z,26.80
2018-05-18T16:32:58.428Z,26.70
2018-05-18T16:35:25.430Z,26.60
2018-05-18T16:37:51.668Z,26.60
2018-05-18T16:40:17.898Z,26.60
2018-05-18T16:42:44.150Z,26.70
2018-05-18T16:45:10.378Z,26.70
2018-05-18T16:47:36.636Z,26.60
2018-05-18T16:50:02.906Z,26.70
2018-05-18T16:52:29.124Z,26.80
2018-05-18T16:54:56.146Z,26.90
2018-05-18T16:57:22.429Z,26.80
2018-05-18T16:59:48.655Z,26.70
2018-05-18T17:02:15.626Z,26.40
2018-05-18T17:04:42.638Z,26.30
2018-05-18T17:07:08.874Z,26.20
2018-05-18T17:09:35.846Z,25.70
2018-05-18T17:12:02.848Z,25.40
2018-05-18T17:14:29.069Z,25.40
2018-05-18T17:16:55.293Z,25.10
2018-05-18T17:19:21.643Z,24.80
2018-05-18T17:21:47.865Z,24.50
2018-05-18T17:24:14.091Z,24.20
2018-05-18T17:26:41.082Z,23.50
2018-05-18T17:29:07.325Z,23.40
2018-05-18T17:31:33.595Z,23.20
2018-05-18T17:33:59.839Z,22.90
2018-05-18T17:36:26.069Z,22.60
2018-05-18T17:38:52.290Z,22.40
2018-05-18T17:41:18.549Z,22.20
2018-05-18T17:43:44.822Z,22.00
2018-05-18T17:46:11.839Z,21.80
2018-05-18T17:48:38.131Z,21.80
2018-05-18T17:51:05.119Z,21.70
2018-05-18T17:53:31.358Z,21.70
2018-05-18T17:55:57.614Z,21.70
2018-05-18T17:58:23.847Z,21.60
2018-05-18T18:00:50.076Z,21.50
2018-05-18T18:03:16.361Z,21.40
2018-05-18T18:05:42.585Z,21.30
2018-05-18T18:08:08.868Z,21.10
2018-05-18T18:10:35.850Z,20.80
2018-05-18T18:13:02.091Z,20.70
2018-05-18T18:15:28.542Z,20.60
2018-05-18T18:17:54.778Z,20.40
2018-05-18T18:20:21.008Z,20.30
2018-05-18T18:22:47.255Z,20.20
2018-05-18T18:25:13.615Z,20.10
2018-05-18T18:27:39.846Z,20.00
2018-05-18T18:30:06.134Z,19.90
2018-05-18T18:34:56.968Z,19.70
2018-05-18T18:37:23.204Z,19.60
2018-05-18T18:39:49.469Z,19.50
2018-05-18T18:42:15.702Z,19.40
2018-05-18T18:44:42.112Z,19.30
2018-05-18T18:47:08.378Z,19.10
2018-05-18T18:49:34.685Z,19.10
2018-05-18T18:52:00.986Z,18.90
2018-05-18T18:54:27.205Z,18.80
2018-05-18T18:56:53.493Z,18.60
2018-05-18T18:59:20.450Z,18.40
2018-05-18T19:01:46.683Z,18.40
2018-05-18T19:04:13.029Z,18.30
2018-05-18T19:06:40.025Z,18.00
2018-05-18T19:09:06.301Z,18.00
2018-05-18T19:11:32.676Z,17.90
2018-05-18T19:13:59.663Z,17.70
2018-05-18T19:16:25.927Z,17.70
2018-05-18T19:18:52.206Z,17.70
2018-05-18T19:21:19.215Z,17.40
2018-05-18T19:23:45.458Z,17.40
2018-05-18T19:26:11.828Z,17.40
2018-05-18T19:28:38.123Z,17.30
2018-05-18T19:31:04.398Z,17.20
2018-05-18T19:33:30.675Z,17.10
2018-05-18T19:35:56.936Z,17.10
2018-05-18T19:38:23.182Z,17.00
2018-05-18T19:40:49.471Z,16.90
2018-05-18T19:43:15.751Z,16.80
2018-05-18T19:45:42.270Z,16.90
2018-05-18T19:48:08.575Z,16.80
2018-05-18T19:50:34.893Z,16.80
2018-05-18T19:53:01.189Z,16.80
2018-05-18T19:55:27.475Z,16.70
2018-05-18T19:57:53.743Z,16.60
2018-05-18T20:00:20.061Z,16.60
2018-05-18T20:02:53.436Z,16.60
2018-05-18T20:05:19.717Z,16.50
2018-05-18T20:07:45.991Z,16.50
2018-05-18T20:10:19.198Z,16.40
2018-05-18T20:12:45.510Z,16.40
2018-05-18T20:15:11.768Z,16.40
2018-05-18T20:17:38.073Z,16.40
2018-05-18T20:20:04.372Z,16.40
2018-05-18T20:22:30.624Z,16.30
2018-05-18T20:24:56.914Z,16.30
2018-05-18T20:27:23.166Z,16.20
2018-05-18T20:29:49.422Z,16.20
2018-05-18T20:32:15.707Z,16.10
2018-05-18T20:34:42.736Z,16.00
2018-05-18T20:37:08.986Z,16.00
2018-05-18T20:39:35.250Z,15.90
2018-05-18T20:42:02.250Z,15.80
2018-05-18T20:44:28.526Z,15.70
2018-05-18T20:46:54.904Z,15.70
2018-05-18T20:49:21.880Z,15.60
2018-05-18T20:51:48.206Z,15.60
2018-05-18T20:54:14.392Z,15.50
2018-05-18T20:56:40.788Z,15.50
2018-05-18T20:59:07.027Z,15.40
2018-05-18T21:01:34.027Z,15.30
2018-05-18T21:04:00.261Z,15.30
2018-05-18T21:06:26.483Z,15.30
2018-05-18T21:08:52.731Z,15.20
2018-05-18T21:11:18.965Z,15.10
2018-05-18T21:13:45.221Z,15.10
2018-05-18T21:16:11.469Z,15.00
2018-05-18T21:18:37.707Z,15.00
2018-05-18T21:21:03.930Z,14.90
2018-05-18T21:23:30.188Z,14.80
2018-05-18T21:25:56.424Z,14.70
2018-05-18T21:28:22.645Z,14.70
2018-05-18T21:30:48.898Z,14.70
2018-05-18T21:33:15.173Z,14.60
2018-05-18T21:35:41.432Z,14.60
2018-05-18T21:38:07.691Z,14.50
2018-05-18T21:40:33.947Z,14.40
2018-05-18T21:43:00.175Z,14.40
2018-05-18T21:45:27.213Z,14.30
2018-05-18T21:47:53.561Z,14.30
2018-05-18T21:50:20.536Z,14.30
2018-05-18T21:52:46.789Z,14.20
2018-05-18T21:55:13.006Z,14.20
2018-05-18T21:57:39.974Z,14.10
2018-05-18T22:00:06.213Z,14.10
2018-05-18T22:02:33.179Z,14.00
2018-05-18T22:04:59.403Z,14.00
2018-05-18T22:07:26.393Z,14.00
2018-05-18T22:09:52.638Z,13.90
2018-05-18T22:12:18.875Z,13.90
2018-05-18T22:14:45.098Z,13.90
2018-05-18T22:17:11.345Z,13.90
2018-05-18T22:19:37.575Z,13.80
2018-05-18T22:22:03.868Z,13.80
2018-05-18T22:24:30.103Z,13.80
2018-05-18T22:26:56.336Z,13.70
2018-05-18T22:29:22.578Z,13.60
2018-05-18T22:31:48.820Z,13.50
2018-05-18T22:34:15.098Z,13.50
2018-05-18T22:36:41.336Z,13.40
2018-05-18T22:39:07.570Z,13.40
2018-05-18T22:41:33.819Z,13.40
2018-05-18T22:44:00.080Z,13.40
2018-05-18T22:46:27.062Z,13.30
2018-05-18T22:48:53.806Z,13.30
2018-05-18T22:51:20.054Z,13.20
2018-05-18T22:53:46.305Z,13.20
2018-05-18T22:56:12.524Z,13.10
2018-05-18T22:58:38.769Z,13.10
2018-05-18T23:01:05.037Z,13.10
2018-05-18T23:03:31.260Z,13.00
2018-05-18T23:05:57.506Z,13.00
2018-05-18T23:08:23.734Z,13.00
2018-05-18T23:10:49.998Z,12.90
2018-05-18T23:13:16.250Z,12.90
2018-05-18T23:15:42.476Z,12.80
2018-05-18T23:18:08.717Z,12.80
2018-05-18T23:20:34.950Z,12.80
2018-05-18T23:23:01.187Z,12.80
2018-05-18T23:25:27.420Z,12.70
2018-05-18T23:27:53.654Z,12.70
2018-05-18T23:30:19.885Z,12.70
2018-05-18T23:32:46.108Z,12.70
2018-05-18T23:35:13.081Z,12.60
2018-05-18T23:37:39.317Z,12.60
2018-05-18T23:40:06.299Z,12.60
2018-05-18T23:42:32.532Z,12.60
2018-05-18T23:44:58.767Z,12.50
2018-05-18T23:47:31.949Z,12.50
2018-05-18T23:49:59.084Z,12.30
2018-05-18T23:52:25.317Z,12.30
2018-05-18T23:54:51.543Z,12.20
2018-05-18T23:57:17.754Z,12.10
2018-05-18T23:59:44.052Z,12.10
